x

South Brooks (46132) Wave Buoy

11:00pm - Sat 24th Jun 2017 All times are PDT. -7 hours from GMT.

  • Sig Wave height 3.9ft
  • Peak Period 16s
  • Wind
    22mph, 25mph gusts
  • Sea Temp 55°f
  • 空気 Temp 57°f
  • Sea Pressure 1017.4mb
  • South Brooks
  • South Brooks

More Historic Weather Station data

Upgrade to MSW Pro to gain access to the past 30 days of data for over 8000 Wavebouys and Weather Stations around the globe.

Join Pro

Comparision Forecast

View Surf forecast
   
Sat 06/24 11:00pm 4ft 16s 22 25 mph 1017.4mb 55f 57f
10:00pm 3.5ft 16s 22 25 mph 1017.9mb 55f 58f
9:00pm 4ft 5s 18 22 mph 1018.5mb 55f 58f
8:00pm 4ft 16s 18 22 mph 1018.6mb 56f 58f
7:00pm 4ft 16s 18 22 mph 1019mb 56f 58f
6:00pm 3.5ft 16s 20 22 mph 1019.5mb 56f 57f
5:00pm 3ft 16s 18 22 mph 1020.1mb 56f 58f
4:00pm 3ft 16s 16 18 mph 1020.4mb 56f 58f
3:00pm 3.5ft 14s 13 16 mph 1020.6mb 56f 58f
2:00pm 3.5ft 17s 16 18 mph 1020.7mb 56f 57f
1:00pm 3.5ft 16s 13 16 mph 1021mb 56f 57f
12:00pm 3.5ft 17s 16 18 mph 1021.1mb 56f 57f
11:00am 3.5ft 16s 13 16 mph 1021.4mb 56f 57f
10:00am 4ft 17s 11 13 mph 1021.6mb 55f 57f
9:00am 4.5ft 17s 13 16 mph 1021.3mb 55f 57f
8:00am 4ft 17s 18 22 mph 1021.5mb 55f 56f
7:00am 4ft 17s 18 22 mph 1021.4mb 55f 56f
6:00am 4ft 17s 18 20 mph 1021.4mb 55f 57f
5:00am 4ft 17s 16 18 mph 1021.3mb 55f 57f
4:00am 3.5ft 17s 18 20 mph 1021.3mb 55f 57f
3:00am 4ft 17s 16 18 mph 1021.6mb 55f 57f
2:00am 4.5ft 17s 16 18 mph 1022mb 55f 57f
1:00am 4.5ft 5s 16 18 mph 1022.2mb 55f 58f
12:00am 4.5ft 17s 18 20 mph 1022.7mb 55f 57f
Fri 06/23 11:00pm 4.5ft 5s 18 20 mph 1022.7mb 55f 58f
10:00pm 4.5ft 17s 20 25 mph 1023mb 55f 58f
9:00pm 5ft 5s 22 25 mph 1023.2mb 55f 58f
8:00pm 5ft 5s 20 22 mph 1023.4mb 55f 58f
7:00pm 5ft 5s 22 25 mph 1023.6mb 55f 57f
6:00pm 4.5ft 5s 18 22 mph 1024.4mb 55f 57f
5:00pm 5ft 5s 18 20 mph 1024.4mb 55f 57f
4:00pm 5ft 5s 18 20 mph 1025mb 55f 56f
3:00pm 5ft 6s 18 22 mph 1025.2mb 55f 56f
2:00pm 5ft 5s 20 25 mph 1025.2mb 55f 56f
1:00pm 5ft 5s 20 25 mph 1025.1mb 55f 56f
12:00pm 5ft 5s 18 22 mph 1025.3mb 55f 56f
11:00am 4.5ft 5s 18 25 mph 1025.1mb 55f 55f
10:00am 5ft 18s 20 25 mph 1025.2mb 55f 55f
9:00am 4.5ft 18s 20 25 mph 1025.4mb 55f 55f
8:00am 5ft 5s 22 27 mph 1025.5mb 55f 55f
7:00am 4.5ft 5s 20 25 mph 1025.2mb 55f 55f
6:00am 5ft 5s 20 25 mph 1025.3mb 55f 55f
4:00am 5ft 6s 20 25 mph 1025.4mb 55f 55f
3:00am 5.5ft 5s 20 25 mph 1025.6mb 55f 55f
2:00am 6ft 5s 25 29 mph 1025.7mb 55f 55f
1:00am 6ft 6s 22 27 mph 1026mb 55f 55f
12:00am 6.5ft 6s 22 27 mph 1026.1mb 55f 55f
Thu 06/22 11:00pm 6ft 6s 22 27 mph 1026.2mb 55f 55f
10:00pm 6.5ft 6s 22 29 mph 1026.6mb 55f 55f
9:00pm 7ft 6s 22 27 mph 1026.5mb 55f 55f
8:00pm 6.5ft 6s 25 29 mph 1026.7mb 55f 55f
7:00pm 7ft 5s 25 29 mph 1027mb 55f 55f
6:00pm 6ft 8s 22 27 mph 1027mb 55f 55f
5:00pm 6ft 9s 22 27 mph 1027.4mb 55f 55f
4:00pm 6ft 8s 22 27 mph 1027.7mb 55f 55f
3:00pm 6ft 8s 20 27 mph 1027.9mb 55f 55f
2:00pm 6ft 8s 22 27 mph 1028mb 55f 55f
1:00pm 6ft 9s 22 27 mph 1027.9mb 55f 55f
12:00pm 6ft 10s 20 25 mph 1027.7mb 55f 54f
11:00am 6.5ft 10s 22 27 mph 1028mb 55f 54f
10:00am 6ft 10s 25 29 mph 1028mb 55f 54f
9:00am 6ft 9s 25 27 mph 1028mb 55f 54f
8:00am 6ft 10s 22 27 mph 1028.2mb 55f 54f
7:00am 6.5ft 10s 20 25 mph 1028.2mb 55f 54f
6:00am 6.5ft 10s 22 25 mph 1028mb 55f 54f
5:00am 6.5ft 10s 22 27 mph 1028.4mb 55f 54f
4:00am 7ft 10s 22 25 mph 1028.3mb 55f 54f
3:00am 7ft 10s 22 27 mph 1028.6mb 55f 54f
2:00am 7ft 10s 22 27 mph 1028.9mb 55f 54f
1:00am 6.5ft 8s 22 27 mph 1028.8mb 55f 54f
12:00am 7ft 10s 20 25 mph 1028.9mb 55f 54f
Wed 06/21 11:00pm 6.5ft 10s 22 27 mph 1028.8mb 55f 54f
10:00pm 7ft 9s 22 27 mph 1028.9mb 55f 54f
9:00pm 7ft 10s 20 25 mph 1028.8mb 55f 54f
8:00pm 7ft 10s 22 27 mph 1029.3mb 55f 55f
7:00pm 7ft 10s 20 25 mph 1029.4mb 55f 55f
6:00pm 7ft 10s 20 22 mph 1029.4mb 55f 55f
5:00pm 7ft 10s 18 22 mph 1030mb 55f 55f
4:00pm 7.5ft 9s 18 22 mph 1029.8mb 55f 55f
3:00pm 8ft 10s 18 20 mph 1030mb 55f 55f
2:00pm 7ft 10s 18 20 mph 1029.7mb 55f 55f
1:00pm 7ft 10s 16 20 mph 1029.5mb 55f 55f
12:00pm 7.5ft 9s 18 20 mph 1029.2mb 55f 55f
11:00am 6.5ft 8s 16 20 mph 1029mb 55f 54f
10:00am 7ft 9s 16 18 mph 1028.8mb 55f 54f
9:00am 6.5ft 9s 16 20 mph 1028.7mb 55f 54f
8:00am 6ft 9s 18 20 mph 1028.1mb 55f 54f